createdAt,value
2019-03-22T00:01:14.620Z,99.90
2019-03-22T00:03:16.825Z,99.90
2019-03-22T00:05:19.034Z,99.90
2019-03-22T00:07:21.528Z,99.90
2019-03-22T00:09:23.733Z,99.90
2019-03-22T00:11:25.950Z,99.90
2019-03-22T00:13:28.157Z,99.90
2019-03-22T00:15:30.449Z,99.90
2019-03-22T00:17:32.660Z,99.90
2019-03-22T00:19:34.865Z,99.10
2019-03-22T00:21:37.076Z,99.30
2019-03-22T00:23:39.569Z,99.50
2019-03-22T00:25:41.765Z,99.50
2019-03-22T00:27:43.989Z,99.10
2019-03-22T00:29:46.992Z,97.90
2019-03-22T00:31:49.690Z,98.70
2019-03-22T00:33:51.897Z,99.90
2019-03-22T00:35:54.099Z,99.90
2019-03-22T00:37:56.306Z,99.70
2019-03-22T00:39:58.518Z,98.20
2019-03-22T00:42:00.725Z,97.00
2019-03-22T00:44:02.939Z,96.20
2019-03-22T00:46:05.392Z,95.30
2019-03-22T00:48:07.616Z,96.60
2019-03-22T00:50:10.233Z,98.60
2019-03-22T00:52:12.765Z,99.30
2019-03-22T00:54:15.212Z,99.30
2019-03-22T00:56:17.434Z,99.90
2019-03-22T00:58:19.633Z,99.90
2019-03-22T01:00:21.842Z,99.90
2019-03-22T01:02:24.067Z,99.90
2019-03-22T01:04:26.629Z,99.90
2019-03-22T01:06:28.841Z,99.90
2019-03-22T01:08:31.050Z,99.90
2019-03-22T01:10:33.262Z,99.90
2019-03-22T01:12:35.481Z,99.90
2019-03-22T01:14:38.049Z,99.90
2019-03-22T01:16:40.265Z,99.90
2019-03-22T01:18:42.478Z,99.90
2019-03-22T01:20:44.684Z,99.90
2019-03-22T01:22:47.015Z,99.90
2019-03-22T01:24:49.226Z,99.90
2019-03-22T01:26:51.450Z,99.90
2019-03-22T01:28:53.665Z,99.90
2019-03-22T01:30:55.868Z,99.90
2019-03-22T01:32:58.089Z,99.90
2019-03-22T01:35:00.371Z,99.90
2019-03-22T01:37:02.613Z,99.90
2019-03-22T01:39:05.551Z,99.90
2019-03-22T01:41:07.756Z,99.90
2019-03-22T01:43:10.280Z,99.90
2019-03-22T01:45:14.425Z,99.90
2019-03-22T01:47:16.641Z,99.90
2019-03-22T01:49:18.849Z,99.90
2019-03-22T01:51:21.067Z,99.90
2019-03-22T01:53:23.376Z,98.70
2019-03-22T01:55:25.921Z,97.50
2019-03-22T01:57:28.157Z,98.40
2019-03-22T01:59:30.453Z,99.30
2019-03-22T02:01:32.658Z,99.90
2019-03-22T02:03:34.873Z,99.90
2019-03-22T02:05:37.094Z,99.90
2019-03-22T02:07:39.309Z,97.50
2019-03-22T02:09:41.714Z,97.20
2019-03-22T02:11:43.919Z,97.80
2019-03-22T02:13:46.133Z,99.20
2019-03-22T02:15:48.342Z,99.70
2019-03-22T02:17:50.558Z,99.90
2019-03-22T02:19:53.069Z,99.90
2019-03-22T02:21:55.281Z,99.90
2019-03-22T02:23:57.496Z,99.90
2019-03-22T02:25:59.702Z,99.90
2019-03-22T02:28:04.387Z,99.90
2019-03-22T02:30:06.287Z,99.90
2019-03-22T02:32:08.504Z,99.90
2019-03-22T02:34:10.719Z,99.90
2019-03-22T02:36:12.938Z,99.90
2019-03-22T02:38:15.163Z,99.90
2019-03-22T02:40:17.629Z,99.90
2019-03-22T02:42:19.841Z,99.90
2019-03-22T02:44:22.049Z,99.90
2019-03-22T02:46:24.265Z,99.90
2019-03-22T02:48:26.477Z,99.90
2019-03-22T02:50:28.677Z,99.90
2019-03-22T02:52:30.924Z,99.90
2019-03-22T02:54:33.135Z,99.90
2019-03-22T02:56:35.602Z,99.90
2019-03-22T02:58:37.917Z,99.90
2019-03-22T03:00:40.126Z,99.90
2019-03-22T03:02:42.602Z,99.90
2019-03-22T03:04:45.134Z,99.90
2019-03-22T03:06:47.357Z,99.90
2019-03-22T03:08:49.570Z,99.90
2019-03-22T03:10:51.785Z,99.90
2019-03-22T03:12:54.062Z,99.90
2019-03-22T03:14:56.567Z,99.90
2019-03-22T03:16:58.833Z,99.90
2019-03-22T03:19:01.070Z,99.90
2019-03-22T03:21:03.454Z,99.90
2019-03-22T03:23:05.699Z,99.90
2019-03-22T03:25:08.064Z,99.90
2019-03-22T03:27:10.565Z,99.90
2019-03-22T03:29:12.786Z,99.90
2019-03-22T03:31:15.011Z,99.90
2019-03-22T03:33:17.336Z,99.90
2019-03-22T03:35:19.676Z,99.90
2019-03-22T03:37:21.961Z,99.90
2019-03-22T03:39:24.278Z,99.90
2019-03-22T03:41:26.485Z,99.90
2019-03-22T03:43:28.704Z,99.90
2019-03-22T03:45:34.638Z,99.90
2019-03-22T03:47:36.930Z,99.90
2019-03-22T03:49:39.873Z,99.90
2019-03-22T03:51:42.095Z,99.90
2019-03-22T03:53:44.320Z,99.90
2019-03-22T03:55:46.537Z,99.90
2019-03-22T03:57:48.744Z,99.90
2019-03-22T03:59:50.966Z,99.90
2019-03-22T04:01:53.177Z,99.90
2019-03-22T04:03:55.394Z,99.90
2019-03-22T04:05:57.605Z,99.90
2019-03-22T04:07:59.812Z,99.90
2019-03-22T04:10:02.069Z,99.90
2019-03-22T04:12:04.299Z,99.90
2019-03-22T04:14:06.602Z,99.90
2019-03-22T04:16:09.154Z,99.90
2019-03-22T04:18:11.394Z,99.90
2019-03-22T04:20:13.694Z,99.90
2019-03-22T04:22:15.898Z,99.90
2019-03-22T04:24:18.122Z,99.90
2019-03-22T04:26:20.329Z,99.90
2019-03-22T04:28:22.547Z,99.90
2019-03-22T04:30:24.763Z,99.90
2019-03-22T04:32:27.311Z,99.90
2019-03-22T04:34:29.626Z,99.90
2019-03-22T04:36:31.842Z,99.90
2019-03-22T04:38:34.036Z,99.90
2019-03-22T04:40:36.253Z,99.90
2019-03-22T04:42:38.466Z,99.90
2019-03-22T04:44:41.643Z,99.90
2019-03-22T04:46:43.853Z,99.90
2019-03-22T04:48:46.317Z,99.90
2019-03-22T04:50:48.530Z,99.90
2019-03-22T04:52:51.072Z,99.90
2019-03-22T04:54:53.295Z,99.90
2019-03-22T04:56:55.517Z,99.90
2019-03-22T04:58:57.730Z,99.90
2019-03-22T05:00:59.937Z,99.90
2019-03-22T05:03:02.442Z,99.90
2019-03-22T05:05:04.729Z,99.90
2019-03-22T05:07:07.442Z,99.90
2019-03-22T05:09:09.661Z,99.90
2019-03-22T05:11:11.876Z,99.90
2019-03-22T05:13:14.081Z,99.90
2019-03-22T05:15:16.416Z,99.90
2019-03-22T05:17:18.925Z,99.90
2019-03-22T05:19:21.141Z,99.90
2019-03-22T05:21:23.914Z,99.90
2019-03-22T05:23:26.119Z,99.90
2019-03-22T05:25:28.329Z,99.90
2019-03-22T05:27:30.585Z,99.90
2019-03-22T05:29:32.809Z,99.90
2019-03-22T05:31:45.373Z,99.90
2019-03-22T05:33:47.588Z,99.90
2019-03-22T05:35:49.806Z,99.90
2019-03-22T05:37:52.012Z,99.90
2019-03-22T05:39:54.466Z,99.90
2019-03-22T05:41:56.669Z,99.90
2019-03-22T05:43:58.977Z,99.90
2019-03-22T05:46:01.193Z,99.90
2019-03-22T05:48:03.401Z,99.90
2019-03-22T05:50:05.697Z,99.90
2019-03-22T05:52:07.910Z,99.90
2019-03-22T05:54:10.362Z,99.90
2019-03-22T05:56:12.596Z,99.90
2019-03-22T05:58:14.793Z,99.90
2019-03-22T06:00:17.609Z,99.90
2019-03-22T06:02:19.811Z,99.90
2019-03-22T06:04:22.023Z,99.90
2019-03-22T06:06:24.241Z,99.90
2019-03-22T06:08:26.713Z,99.90
2019-03-22T06:10:28.934Z,99.90
2019-03-22T06:12:31.140Z,99.90
2019-03-22T06:14:33.697Z,99.90
2019-03-22T06:16:35.905Z,99.90
2019-03-22T06:18:38.121Z,99.90
2019-03-22T06:20:40.355Z,99.90
2019-03-22T06:22:42.580Z,99.90
2019-03-22T06:24:44.793Z,99.90
2019-03-22T06:26:47.010Z,99.90
2019-03-22T06:28:49.227Z,99.90
2019-03-22T06:30:51.429Z,99.90
2019-03-22T06:32:53.638Z,99.90
2019-03-22T06:34:56.766Z,99.90
2019-03-22T06:36:58.992Z,99.90
2019-03-22T06:39:01.198Z,99.90
2019-03-22T06:41:03.422Z,99.90
2019-03-22T06:43:05.626Z,99.90
2019-03-22T06:45:07.854Z,99.90
2019-03-22T06:47:11.208Z,99.90
2019-03-22T06:49:13.957Z,99.90
2019-03-22T06:51:16.169Z,99.90
2019-03-22T06:53:18.382Z,99.90
2019-03-22T06:55:20.613Z,99.90
2019-03-22T06:57:22.830Z,99.90
2019-03-22T06:59:25.039Z,99.90
2019-03-22T07:01:27.273Z,99.90
2019-03-22T07:03:29.472Z,99.90
2019-03-22T07:05:31.942Z,99.90
2019-03-22T07:07:34.149Z,99.90
2019-03-22T07:09:36.357Z,99.90
2019-03-22T07:11:38.607Z,99.90
2019-03-22T07:13:40.822Z,99.90
2019-03-22T07:15:43.306Z,99.90
2019-03-22T07:17:45.523Z,99.90
2019-03-22T07:19:47.729Z,99.90
2019-03-22T07:21:49.939Z,99.90
2019-03-22T07:23:52.246Z,99.90
2019-03-22T07:25:54.749Z,99.90
2019-03-22T07:27:57.184Z,99.90
2019-03-22T07:29:59.389Z,99.90
2019-03-22T07:32:01.613Z,99.90
2019-03-22T07:34:03.821Z,99.90
2019-03-22T07:36:06.029Z,99.90
2019-03-22T07:38:08.247Z,99.90
2019-03-22T07:40:10.615Z,99.90
2019-03-22T07:42:12.830Z,99.90
2019-03-22T07:44:15.335Z,99.90
2019-03-22T07:46:17.612Z,99.90
2019-03-22T07:48:20.055Z,96.40
2019-03-22T07:50:22.257Z,98.50
2019-03-22T07:52:24.472Z,96.20
2019-03-22T07:54:26.676Z,97.00
2019-03-22T07:56:28.897Z,98.60
2019-03-22T07:58:31.101Z,94.70
2019-03-22T08:00:33.621Z,90.40
2019-03-22T08:02:35.841Z,95.80
2019-03-22T08:04:38.050Z,93.80
2019-03-22T08:06:40.273Z,98.40
2019-03-22T08:08:42.473Z,95.60
2019-03-22T08:10:44.668Z,90.10
2019-03-22T08:12:47.213Z,91.00
2019-03-22T08:14:49.515Z,86.60
2019-03-22T08:16:51.793Z,86.90
2019-03-22T08:18:54.281Z,90.00
2019-03-22T08:20:56.489Z,86.20
2019-03-22T08:22:58.705Z,77.20
2019-03-22T08:25:01.153Z,76.30
2019-03-22T08:27:03.437Z,65.90
2019-03-22T08:29:05.918Z,63.10
2019-03-22T08:31:08.227Z,72.30
2019-03-22T08:33:10.509Z,68.20
2019-03-22T08:35:12.709Z,78.00
2019-03-22T08:37:15.190Z,73.40
2019-03-22T08:39:17.669Z,60.30
2019-03-22T08:41:19.920Z,57.20
2019-03-22T08:43:22.243Z,56.30
2019-03-22T08:45:24.847Z,57.20
2019-03-22T08:47:33.996Z,55.50
2019-03-22T08:49:31.377Z,54.10
2019-03-22T08:51:33.957Z,52.60
2019-03-22T08:53:36.173Z,56.20
2019-03-22T08:55:38.508Z,54.30
2019-03-22T08:57:40.798Z,56.20
2019-03-22T08:59:43.102Z,47.40
2019-03-22T09:01:45.317Z,45.10
2019-03-22T09:03:47.536Z,36.20
2019-03-22T09:05:49.741Z,42.80
2019-03-22T09:07:52.010Z,38.30
2019-03-22T09:09:54.261Z,33.80
2019-03-22T09:11:56.478Z,44.80
2019-03-22T09:13:58.801Z,35.60
2019-03-22T09:16:01.053Z,37.10
2019-03-22T09:18:03.314Z,29.70
2019-03-22T09:20:06.162Z,34.90
2019-03-22T09:22:08.497Z,33.70
2019-03-22T09:24:10.777Z,36.60
2019-03-22T09:26:13.077Z,30.30
2019-03-22T09:28:15.305Z,27.10
2019-03-22T09:30:17.768Z,30.20
2019-03-22T09:32:20.242Z,25.10
2019-03-22T09:34:33.160Z,26.20
2019-03-22T09:36:26.884Z,19.50
2019-03-22T09:38:29.178Z,20.30
2019-03-22T09:40:31.425Z,19.70
2019-03-22T09:42:33.738Z,24.20
2019-03-22T09:44:43.341Z,26.40
2019-03-22T09:46:40.679Z,24.40
2019-03-22T09:48:42.987Z,21.10
2019-03-22T09:50:45.273Z,24.80
2019-03-22T09:52:47.756Z,14.80
2019-03-22T09:54:50.030Z,16.80
2019-03-22T09:56:52.408Z,15.50
2019-03-22T09:58:54.671Z,16.90
2019-03-22T10:00:57.387Z,18.40
2019-03-22T10:03:00.134Z,9.60
2019-03-22T10:05:02.786Z,10.90
2019-03-22T10:07:05.285Z,9.50
2019-03-22T10:09:07.877Z,7.60
2019-03-22T10:11:11.193Z,4.80
2019-03-22T10:13:13.692Z,7.30
2019-03-22T10:15:17.381Z,5.20
2019-03-22T10:17:19.986Z,9.20
2019-03-22T10:19:22.354Z,7.10
2019-03-22T10:21:24.760Z,3.60
2019-03-22T10:23:29.425Z,3.20
2019-03-22T10:25:32.153Z,4.00
2019-03-22T10:27:37.707Z,1.00
2019-03-22T10:29:40.237Z,1.00
2019-03-22T10:31:42.982Z,1.00
2019-03-22T10:33:45.324Z,1.00
2019-03-22T10:35:47.622Z,1.00
2019-03-22T10:37:49.832Z,1.00
2019-03-22T10:39:52.034Z,1.00
2019-03-22T10:41:54.248Z,1.00
2019-03-22T10:43:56.623Z,1.00
2019-03-22T10:45:59.217Z,1.00
2019-03-22T10:48:01.490Z,1.50
2019-03-22T10:50:04.327Z,1.00
2019-03-22T10:52:06.526Z,1.00
2019-03-22T10:54:08.738Z,1.00
2019-03-22T10:56:11.325Z,1.00
2019-03-22T10:58:21.001Z,1.00
2019-03-22T11:00:18.993Z,1.00
2019-03-22T11:02:21.189Z,1.00
2019-03-22T11:04:23.401Z,1.00
2019-03-22T11:06:26.555Z,1.00
2019-03-22T11:08:29.424Z,1.00
2019-03-22T11:10:31.618Z,1.00
2019-03-22T11:12:33.825Z,1.00
2019-03-22T11:14:36.054Z,1.00
2019-03-22T11:16:38.357Z,1.00
2019-03-22T11:18:40.584Z,1.00
2019-03-22T11:20:43.033Z,1.00
2019-03-22T11:22:45.309Z,1.00
2019-03-22T11:24:47.961Z,1.00
2019-03-22T11:26:50.452Z,1.00
2019-03-22T11:28:52.661Z,1.00
2019-03-22T11:31:01.139Z,1.00
2019-03-22T11:32:58.977Z,1.00
2019-03-22T11:35:01.190Z,1.00
2019-03-22T11:37:03.393Z,1.00
2019-03-22T11:39:15.155Z,1.00
2019-03-22T11:41:12.107Z,1.00
2019-03-22T11:43:14.329Z,1.00
2019-03-22T11:45:17.097Z,1.00
2019-03-22T11:47:19.309Z,1.00
2019-03-22T11:49:21.525Z,1.00
2019-03-22T11:51:23.734Z,1.00
2019-03-22T11:53:25.949Z,1.00
2019-03-22T11:55:28.153Z,1.00
2019-03-22T11:57:30.365Z,1.00
2019-03-22T11:59:32.578Z,1.00
2019-03-22T12:01:34.784Z,1.00
2019-03-22T12:03:36.998Z,1.00
2019-03-22T12:05:40.641Z,1.00
2019-03-22T12:07:43.105Z,1.00
2019-03-22T12:09:45.316Z,1.00
2019-03-22T12:11:47.525Z,1.00
2019-03-22T12:13:49.716Z,1.00
2019-03-22T12:15:51.915Z,1.00
2019-03-22T12:17:54.151Z,1.00
2019-03-22T12:19:56.456Z,1.00
2019-03-22T12:21:58.661Z,1.00
2019-03-22T12:24:00.892Z,1.00
2019-03-22T12:26:03.505Z,1.00
2019-03-22T12:28:05.985Z,1.00
2019-03-22T12:30:12.845Z,1.00
2019-03-22T12:32:15.041Z,1.00
2019-03-22T12:34:17.517Z,1.00
2019-03-22T12:36:19.727Z,1.00
2019-03-22T12:38:21.934Z,1.00
2019-03-22T12:40:24.151Z,1.00
2019-03-22T12:42:26.357Z,1.00
2019-03-22T12:44:28.571Z,1.00
2019-03-22T12:46:30.784Z,1.00
2019-03-22T12:48:32.989Z,1.00
2019-03-22T12:50:35.205Z,1.00
2019-03-22T12:52:37.409Z,1.00
2019-03-22T12:54:39.609Z,1.00
2019-03-22T12:56:41.828Z,1.00
2019-03-22T12:58:44.037Z,1.00
2019-03-22T13:00:46.369Z,1.00
2019-03-22T13:02:48.696Z,1.00
2019-03-22T13:04:50.897Z,1.00
2019-03-22T13:06:53.271Z,1.00
2019-03-22T13:08:55.717Z,1.00
2019-03-22T13:10:57.928Z,1.00
2019-03-22T13:13:00.138Z,1.00
2019-03-22T13:15:02.702Z,1.00
2019-03-22T13:17:04.914Z,1.00
2019-03-22T13:19:07.117Z,1.00
2019-03-22T13:21:09.442Z,1.00
2019-03-22T13:23:11.653Z,1.00
2019-03-22T13:25:13.989Z,1.00
2019-03-22T13:27:16.196Z,1.00
2019-03-22T13:29:18.397Z,1.00
2019-03-22T13:31:20.610Z,1.00
2019-03-22T13:33:22.817Z,1.00
2019-03-22T13:35:25.025Z,1.00
2019-03-22T13:37:27.241Z,1.00
2019-03-22T13:39:29.449Z,1.00
2019-03-22T13:41:31.652Z,1.00
2019-03-22T13:43:33.865Z,1.00
2019-03-22T13:45:36.080Z,1.00
2019-03-22T13:47:38.272Z,1.00
2019-03-22T13:49:40.477Z,1.00
2019-03-22T13:51:42.789Z,1.00
2019-03-22T13:53:44.994Z,1.00
2019-03-22T13:55:47.225Z,1.00
2019-03-22T13:57:49.534Z,1.00
2019-03-22T13:59:51.756Z,1.00
2019-03-22T14:01:54.070Z,1.00
2019-03-22T14:03:56.640Z,1.00
2019-03-22T14:05:59.018Z,1.00
2019-03-22T14:08:01.227Z,1.00
2019-03-22T14:10:03.765Z,1.00
2019-03-22T14:12:05.965Z,1.00
2019-03-22T14:14:08.437Z,1.00
2019-03-22T14:16:10.648Z,1.00
2019-03-22T14:18:12.857Z,1.00
2019-03-22T14:20:15.066Z,1.00
2019-03-22T14:22:17.274Z,1.00
2019-03-22T14:24:19.477Z,1.00
2019-03-22T14:26:21.690Z,1.00
2019-03-22T14:28:23.890Z,1.00
2019-03-22T14:30:26.105Z,1.00
2019-03-22T14:32:28.308Z,1.00
2019-03-22T14:34:30.516Z,1.00
2019-03-22T14:36:32.907Z,1.00
2019-03-22T14:38:35.109Z,1.00
2019-03-22T14:40:37.329Z,1.00
2019-03-22T14:42:39.527Z,1.00
2019-03-22T14:44:41.729Z,1.00
2019-03-22T14:46:43.946Z,1.00
2019-03-22T14:48:46.141Z,1.00
2019-03-22T14:50:48.350Z,1.00
2019-03-22T14:52:50.554Z,1.00
2019-03-22T14:54:53.081Z,1.00
2019-03-22T14:56:55.308Z,1.00
2019-03-22T14:58:57.505Z,1.00
2019-03-22T15:00:59.729Z,1.00
2019-03-22T15:03:03.837Z,1.00
2019-03-22T15:05:06.036Z,1.00
2019-03-22T15:07:19.224Z,1.00
2019-03-22T15:09:12.357Z,1.00
2019-03-22T15:11:14.820Z,1.00
2019-03-22T15:13:17.417Z,1.00
2019-03-22T15:15:29.222Z,1.00
2019-03-22T15:18:09.747Z,1.00
2019-03-22T15:20:46.874Z,1.00
2019-03-22T15:23:01.323Z,1.00
2019-03-22T15:25:19.562Z,1.00
2019-03-22T15:27:39.933Z,1.00
2019-03-22T15:29:57.615Z,1.00
2019-03-22T15:32:14.086Z,1.00
2019-03-22T15:34:41.989Z,1.00
2019-03-22T15:37:08.207Z,1.00
2019-03-22T15:39:29.918Z,1.00
2019-03-22T15:41:32.836Z,1.00
2019-03-22T15:43:35.037Z,1.00
2019-03-22T15:45:37.239Z,1.00
2019-03-22T15:47:39.784Z,1.00
2019-03-22T15:49:41.973Z,1.00
2019-03-22T15:51:44.189Z,1.00
2019-03-22T15:53:46.688Z,1.00
2019-03-22T15:55:49.206Z,1.00
2019-03-22T15:57:51.497Z,1.00
2019-03-22T15:59:53.993Z,1.00
2019-03-22T16:01:56.210Z,1.00
2019-03-22T16:03:58.653Z,1.20
2019-03-22T16:06:00.853Z,1.80
2019-03-22T16:08:03.099Z,2.10
2019-03-22T16:10:05.946Z,6.50
2019-03-22T16:12:08.159Z,3.00
2019-03-22T16:14:10.365Z,4.00
2019-03-22T16:16:12.565Z,3.40
2019-03-22T16:18:14.778Z,4.40
2019-03-22T16:20:16.980Z,3.90
2019-03-22T16:22:19.193Z,4.60
2019-03-22T16:24:21.394Z,4.70
2019-03-22T16:26:23.592Z,6.80
2019-03-22T16:28:25.809Z,6.20
2019-03-22T16:30:28.292Z,7.30
2019-03-22T16:32:30.505Z,7.50
2019-03-22T16:34:32.706Z,7.90
2019-03-22T16:36:34.910Z,8.10
2019-03-22T16:38:37.120Z,9.30
2019-03-22T16:40:39.317Z,11.30
2019-03-22T16:42:41.530Z,11.10
2019-03-22T16:44:43.734Z,10.70
2019-03-22T16:46:45.932Z,11.20
2019-03-22T16:48:48.145Z,11.10
2019-03-22T16:50:50.350Z,12.90
2019-03-22T16:52:52.840Z,12.50
2019-03-22T16:54:55.032Z,13.80
2019-03-22T16:56:57.258Z,15.20
2019-03-22T16:58:59.461Z,15.20
2019-03-22T17:01:01.657Z,15.70
2019-03-22T17:03:04.857Z,15.50
2019-03-22T17:05:07.085Z,17.20
2019-03-22T17:07:09.541Z,18.30
2019-03-22T17:09:11.733Z,18.20
2019-03-22T17:11:13.934Z,20.00
2019-03-22T17:13:16.143Z,19.40
2019-03-22T17:15:18.354Z,19.70
2019-03-22T17:17:20.573Z,22.30
2019-03-22T17:19:23.117Z,22.30
2019-03-22T17:21:25.321Z,23.00
2019-03-22T17:23:27.551Z,22.80
2019-03-22T17:25:29.745Z,24.10
2019-03-22T17:27:31.956Z,24.60
2019-03-22T17:29:34.153Z,25.40
2019-03-22T17:31:36.366Z,26.00
2019-03-22T17:33:38.578Z,26.70
2019-03-22T17:35:41.033Z,27.50
2019-03-22T17:37:43.249Z,28.40
2019-03-22T17:39:45.445Z,29.10
2019-03-22T17:41:47.908Z,29.90
2019-03-22T17:43:50.113Z,30.30
2019-03-22T17:45:52.313Z,32.40
2019-03-22T17:47:54.525Z,34.00
2019-03-22T17:49:56.733Z,34.50
2019-03-22T17:51:58.933Z,35.10
2019-03-22T17:54:01.147Z,37.20
2019-03-22T17:56:03.344Z,37.70
2019-03-22T17:58:05.570Z,39.60
2019-03-22T18:00:07.989Z,42.90
2019-03-22T18:02:10.208Z,44.90
2019-03-22T18:04:12.409Z,46.50
2019-03-22T18:06:14.917Z,48.40
2019-03-22T18:08:17.132Z,51.60
2019-03-22T18:10:19.334Z,52.50
2019-03-22T18:12:21.548Z,54.80
2019-03-22T18:14:23.748Z,56.00
2019-03-22T18:16:25.949Z,57.80
2019-03-22T18:18:28.173Z,59.30
2019-03-22T18:20:30.371Z,61.10
2019-03-22T18:22:32.946Z,64.00
2019-03-22T18:24:35.466Z,65.80
2019-03-22T18:26:37.670Z,68.50
2019-03-22T18:29:34.600Z,68.70
2019-03-22T18:31:36.824Z,71.70
2019-03-22T18:33:39.120Z,75.70
2019-03-22T18:35:41.343Z,77.90
2019-03-22T18:37:43.570Z,79.80
2019-03-22T18:39:45.765Z,81.80
2019-03-22T18:41:47.985Z,83.80
2019-03-22T18:43:50.189Z,85.80
2019-03-22T18:45:52.434Z,87.10
2019-03-22T18:47:54.663Z,89.50
2019-03-22T18:49:56.870Z,90.20
2019-03-22T18:51:59.074Z,91.00
2019-03-22T18:54:01.285Z,91.10
2019-03-22T18:56:03.589Z,92.20
2019-03-22T18:58:05.824Z,92.30
2019-03-22T19:00:08.397Z,92.70
2019-03-22T19:02:10.622Z,92.90
2019-03-22T19:04:13.069Z,93.50
2019-03-22T19:06:15.274Z,94.10
2019-03-22T19:08:17.507Z,94.60
2019-03-22T19:10:19.724Z,94.10
2019-03-22T19:12:22.005Z,94.80
2019-03-22T19:14:24.224Z,95.30
2019-03-22T19:16:26.748Z,95.70
2019-03-22T19:18:28.969Z,95.80
2019-03-22T19:20:31.181Z,96.10
2019-03-22T19:22:33.714Z,95.90
2019-03-22T19:24:36.141Z,96.40
2019-03-22T19:26:38.345Z,96.90
2019-03-22T19:28:40.557Z,97.00
2019-03-22T19:30:42.776Z,96.90
2019-03-22T19:32:45.000Z,96.80
2019-03-22T19:34:54.363Z,96.90
2019-03-22T19:36:51.312Z,96.50
2019-03-22T19:38:53.529Z,96.90
2019-03-22T19:40:55.732Z,97.30
2019-03-22T19:42:57.937Z,97.10
2019-03-22T19:45:00.273Z,98.20
2019-03-22T19:47:02.564Z,97.60
2019-03-22T19:49:04.800Z,98.60
2019-03-22T19:51:07.001Z,98.20
2019-03-22T19:53:09.224Z,98.00
2019-03-22T19:55:12.045Z,97.70
2019-03-22T19:57:14.276Z,98.20
2019-03-22T19:59:16.485Z,98.10
2019-03-22T20:01:18.698Z,98.10
2019-03-22T20:03:20.909Z,97.40
2019-03-22T20:05:27.223Z,96.90
2019-03-22T20:07:29.674Z,96.60
2019-03-22T20:09:31.910Z,96.20
2019-03-22T20:11:34.254Z,95.50
2019-03-22T20:13:36.540Z,94.60
2019-03-22T20:15:38.752Z,94.10
2019-03-22T20:17:40.967Z,94.20
2019-03-22T20:19:43.189Z,93.90
2019-03-22T20:21:45.404Z,93.00
2019-03-22T20:23:53.578Z,93.40
2019-03-22T20:25:51.722Z,93.10
2019-03-22T20:27:53.929Z,93.30
2019-03-22T20:29:56.159Z,93.00
2019-03-22T20:31:58.380Z,93.20
2019-03-22T20:34:00.857Z,93.10
2019-03-22T20:36:03.100Z,92.60
2019-03-22T20:38:05.301Z,92.70
2019-03-22T20:40:07.545Z,92.40
2019-03-22T20:42:09.772Z,92.60
2019-03-22T20:44:12.083Z,92.70
2019-03-22T20:46:14.300Z,92.40
2019-03-22T20:48:16.509Z,92.60
2019-03-22T20:50:19.002Z,92.90
2019-03-22T20:52:21.221Z,92.80
2019-03-22T20:54:23.428Z,93.40
2019-03-22T20:56:25.889Z,93.60
2019-03-22T20:58:28.106Z,94.60
2019-03-22T21:00:30.318Z,94.30
2019-03-22T21:02:32.529Z,94.70
2019-03-22T21:04:34.849Z,95.10
2019-03-22T21:06:37.060Z,95.10
2019-03-22T21:08:39.393Z,94.90
2019-03-22T21:10:41.697Z,94.90
2019-03-22T21:12:43.896Z,94.90
2019-03-22T21:14:46.914Z,95.50
2019-03-22T21:16:49.127Z,95.60
2019-03-22T21:18:51.356Z,95.70
2019-03-22T21:20:53.845Z,96.20
2019-03-22T21:22:56.047Z,96.20
2019-03-22T21:24:58.273Z,95.80
2019-03-22T21:27:00.486Z,96.70
2019-03-22T21:29:03.093Z,97.20
2019-03-22T21:31:05.382Z,97.50
2019-03-22T21:33:07.591Z,97.40
2019-03-22T21:35:09.806Z,97.40
2019-03-22T21:37:12.036Z,97.20
2019-03-22T21:39:14.252Z,96.50
2019-03-22T21:41:16.446Z,96.50
2019-03-22T21:43:18.650Z,95.80
2019-03-22T21:45:21.389Z,96.00
2019-03-22T21:47:23.657Z,95.90
2019-03-22T21:49:25.895Z,95.60
2019-03-22T21:51:28.094Z,95.40
2019-03-22T21:53:30.348Z,94.60
2019-03-22T21:55:32.645Z,95.20
2019-03-22T21:57:34.864Z,95.70
2019-03-22T21:59:37.077Z,96.10
2019-03-22T22:01:39.280Z,95.90
2019-03-22T22:03:41.501Z,95.90
2019-03-22T22:05:47.789Z,95.80
2019-03-22T22:07:47.830Z,95.50
2019-03-22T22:09:50.056Z,95.10
2019-03-22T22:11:52.261Z,94.80
2019-03-22T22:13:54.461Z,94.50
2019-03-22T22:15:56.704Z,94.10
2019-03-22T22:17:58.909Z,93.80
2019-03-22T22:20:01.140Z,94.00
2019-03-22T22:22:03.440Z,94.00
2019-03-22T22:24:05.644Z,93.70
2019-03-22T22:26:07.866Z,93.00
2019-03-22T22:28:10.088Z,85.70
2019-03-22T22:30:12.347Z,85.10
2019-03-22T22:32:15.069Z,87.60
2019-03-22T22:34:17.268Z,90.60
2019-03-22T22:36:19.493Z,91.40
2019-03-22T22:38:21.969Z,92.50
2019-03-22T22:40:24.187Z,94.40
2019-03-22T22:42:26.408Z,92.50
2019-03-22T22:44:28.621Z,79.80
2019-03-22T22:46:30.855Z,82.80
2019-03-22T22:48:33.061Z,86.70
2019-03-22T22:50:35.282Z,91.80
2019-03-22T22:52:37.522Z,92.30
2019-03-22T22:54:39.718Z,89.80
2019-03-22T22:56:41.969Z,91.10
2019-03-22T22:58:44.165Z,96.00
2019-03-22T23:00:46.486Z,96.70
2019-03-22T23:02:48.790Z,96.10
2019-03-22T23:04:51.015Z,96.10
2019-03-22T23:06:53.229Z,96.00
2019-03-22T23:08:55.762Z,96.20
2019-03-22T23:10:57.980Z,95.80
2019-03-22T23:13:00.189Z,96.60
2019-03-22T23:15:02.547Z,95.90
2019-03-22T23:17:04.972Z,96.00
2019-03-22T23:19:07.195Z,95.50
2019-03-22T23:21:09.496Z,96.40
2019-03-22T23:23:11.702Z,94.70
2019-03-22T23:25:13.916Z,93.60
2019-03-22T23:27:16.134Z,91.30
2019-03-22T23:29:18.350Z,92.80
2019-03-22T23:31:20.561Z,89.70
2019-03-22T23:33:22.773Z,91.20
2019-03-22T23:35:25.434Z,92.20
2019-03-22T23:37:27.639Z,95.40
2019-03-22T23:39:29.841Z,96.20
2019-03-22T23:41:32.056Z,95.80
2019-03-22T23:43:34.270Z,95.60
2019-03-22T23:45:36.492Z,95.90
2019-03-22T23:47:38.689Z,96.30
2019-03-22T23:49:40.914Z,96.30
2019-03-22T23:51:43.381Z,96.00
2019-03-22T23:53:45.585Z,95.70
2019-03-22T23:55:47.800Z,95.60
2019-03-22T23:57:50.018Z,96.10
2019-03-22T23:59:52.225Z,96.00
